Time;durP1;ratioP1;P1;durP2;ratioP2;P2;SDS_P1;SDS_P2;PMS_P1;PMS_P2;Temp;Humidity;BMP_temperature;BMP_pressure;BME280_temperature;BME280_humidity;BME280_pressure;Samples;Min_cycle;Max_cycle;Signal;HPM_P1;HPM_P2
2021/04/08 00:00:18;;;;;;;5.10;2.70;;;5.10;75.80;;;4.62;75.98;98661.50;5068217;28;21387;-66
2021/04/08 00:02:46;;;;;;;3.13;2.27;;;5.10;76.20;;;4.66;75.36;98664.78;5068460;28;20643;-66
2021/04/08 00:05:16;;;;;;;4.10;2.90;;;5.10;76.00;;;4.62;75.76;98664.06;5067619;28;21039;-66
2021/04/08 00:07:46;;;;;;;3.83;2.33;;;5.10;76.40;;;4.56;77.36;98666.88;5063312;28;20643;-66
2021/04/08 00:10:14;;;;;;;3.90;2.43;;;5.10;77.40;;;4.51;77.25;98670.50;5066197;28;20644;-66
2021/04/08 00:12:43;;;;;;;2.87;2.57;;;5.00;77.60;;;4.54;76.71;98671.25;5069638;28;20756;-66
2021/04/08 00:15:14;;;;;;;3.50;2.50;;;5.00;77.90;;;4.52;76.55;98675.59;5061003;28;21049;-66
2021/04/08 00:17:43;;;;;;;5.67;3.63;;;5.00;78.30;;;4.36;78.44;98679.63;5070081;28;20717;-66
2021/04/08 00:20:14;;;;;;;4.43;3.03;;;4.90;79.20;;;4.31;79.47;98681.50;5081700;28;21009;-66
2021/04/08 00:22:42;;;;;;;4.23;3.30;;;4.80;80.90;;;4.26;79.76;98682.59;5066216;28;20642;-66
2021/04/08 00:25:13;;;;;;;4.60;3.03;;;4.70;81.30;;;4.11;80.70;98680.53;5062752;28;20666;-66
2021/04/08 00:27:43;;;;;;;3.30;2.97;;;4.60;82.20;;;4.12;80.70;98682.22;5066045;28;20693;-66
2021/04/08 00:30:13;;;;;;;6.97;3.37;;;4.60;83.30;;;4.11;81.05;98690.84;5064592;28;20693;-66
2021/04/08 00:32:40;;;;;;;5.87;3.13;;;4.60;83.60;;;4.09;80.75;98696.94;5063820;28;21210;-66
2021/04/08 00:35:10;;;;;;;3.47;3.17;;;4.60;83.80;;;4.11;80.64;98700.34;5064841;28;20662;-66
2021/04/08 00:37:37;;;;;;;4.40;3.03;;;4.60;83.80;;;4.07;80.99;98703.91;5064792;28;20647;-66
2021/04/08 00:40:09;;;;;;;3.80;3.00;;;4.60;84.40;;;4.10;82.26;98706.38;5067431;28;20671;-66
2021/04/08 00:42:39;;;;;;;6.23;3.50;;;4.60;84.70;;;4.14;81.39;98700.22;5064279;28;20636;-66
2021/04/08 00:45:09;;;;;;;5.10;3.47;;;4.60;84.70;;;4.16;80.88;98704.44;5066180;28;20688;-66
2021/04/08 00:47:38;;;;;;;4.30;3.10;;;4.70;85.00;;;4.19;81.89;98708.66;5063565;28;21010;-66
2021/04/08 00:50:08;;;;;;;5.77;3.20;;;4.70;85.10;;;4.27;81.33;98710.09;5092329;28;21242;-66
2021/04/08 00:52:38;;;;;;;4.90;3.50;;;4.70;85.10;;;4.33;81.65;98712.44;5064636;28;20668;-66
2021/04/08 00:55:07;;;;;;;4.23;3.40;;;4.80;85.20;;;4.36;81.94;98718.38;5061724;28;20993;-66
2021/04/08 00:57:38;;;;;;;4.73;3.40;;;4.80;85.20;;;4.43;81.44;98714.66;5065100;28;20638;-66
2021/04/08 01:00:07;;;;;;;6.93;4.33;;;4.80;85.00;;;4.46;81.19;98709.38;5067275;28;21210;-66
2021/04/08 01:02:35;;;;;;;4.43;3.47;;;4.90;85.00;;;4.51;80.48;98714.41;5062667;28;20632;-66
2021/04/08 01:05:04;;;;;;;7.87;4.00;;;5.00;85.00;;;4.56;80.42;98725.44;5064298;28;20650;-66
2021/04/08 01:07:33;;;;;;;5.93;3.77;;;5.00;84.70;;;4.56;80.86;98722.84;5061076;28;20628;-66
2021/04/08 01:10:01;;;;;;;4.87;3.47;;;5.10;84.70;;;4.61;80.74;98723.53;5066193;28;20631;-66
2021/04/08 01:12:30;;;;;;;6.80;4.00;;;5.10;84.60;;;4.56;81.83;98731.44;5066638;28;20651;-66
2021/04/08 01:14:59;;;;;;;3.50;3.20;;;5.00;84.30;;;4.58;80.32;98719.28;5065582;28;20667;-66
2021/04/08 01:17:35;;;;;;;5.10;3.57;;;5.10;84.50;;;4.50;81.62;98728.22;5061401;28;20632;-66
2021/04/08 01:20:43;;;;;;;5.60;3.50;;;5.00;85.20;;;4.50;81.62;98731.63;5062286;28;20633;-66
2021/04/08 01:24:04;;;;;;;7.80;3.67;;;5.00;85.30;;;4.48;81.52;98730.84;5068420;28;21020;-66
2021/04/08 01:27:31;;;;;;;4.47;3.43;;;4.90;85.50;;;4.51;81.00;98738.50;5058324;28;20627;-66
2021/04/08 01:30:35;;;;;;;6.50;3.80;;;5.00;85.30;;;4.53;81.37;98736.69;5066497;28;20639;-66
2021/04/08 01:33:04;;;;;;;4.73;3.63;;;5.00;85.10;;;4.52;81.50;98747.91;5063833;28;20701;-66
2021/04/08 01:35:34;;;;;;;5.50;4.10;;;5.00;85.80;;;4.52;81.59;98745.31;5056882;28;21226;-66
2021/04/08 01:38:09;;;;;;;5.93;4.30;;;5.00;85.20;;;4.59;81.37;98748.56;5067978;28;20668;-66
2021/04/08 01:40:38;;;;;;;5.27;3.77;;;5.10;85.50;;;4.63;81.66;98748.41;5061544;28;20718;-66
2021/04/08 01:43:08;;;;;;;6.17;3.87;;;5.10;85.20;;;4.60;80.51;98751.09;5064573;28;20657;-66
2021/04/08 01:45:37;;;;;;;3.73;3.30;;;5.10;84.10;;;4.57;81.06;98747.75;5065020;28;21049;-66
2021/04/08 01:48:07;;;;;;;11.23;4.93;;;5.10;83.80;;;4.48;79.38;98742.91;5063875;28;20644;-66
2021/04/08 01:50:35;;;;;;;6.50;3.93;;;5.00;81.80;;;4.41;78.33;98750.03;5064562;28;20632;-66
2021/04/08 01:53:06;;;;;;;6.60;3.90;;;5.00;81.00;;;4.42;79.21;98751.72;5080032;28;20655;-66
2021/04/08 01:55:37;;;;;;;7.13;4.10;;;4.90;81.30;;;4.50;77.82;98754.88;5065699;28;20728;-66
2021/04/08 01:58:07;;;;;;;4.33;3.47;;;5.00;80.50;;;4.50;78.70;98757.47;5067182;28;20639;-66
2021/04/08 02:00:37;;;;;;;4.90;3.90;;;5.00;80.20;;;4.50;77.30;98762.63;5058476;28;20667;-66
2021/04/08 02:03:08;;;;;;;4.27;3.60;;;5.00;80.30;;;4.52;77.68;98765.97;5061250;28;20647;-66
2021/04/08 02:05:35;;;;;;;4.73;3.40;;;5.00;80.00;;;4.50;76.98;98762.63;5064958;28;20631;-66
2021/04/08 02:08:06;;;;;;;5.90;4.40;;;5.00;79.30;;;4.50;77.15;98760.03;5062151;28;20632;-66
2021/04/08 02:10:35;;;;;;;5.70;4.27;;;5.00;78.70;;;4.52;75.27;98762.56;5063525;28;20647;-66
2021/04/08 02:13:04;;;;;;;5.20;4.00;;;5.00;77.50;;;4.46;76.74;98761.03;5066196;28;21020;-66
2021/04/08 02:15:33;;;;;;;5.20;4.00;;;5.00;77.40;;;4.50;75.35;98772.13;5063952;28;20635;-66
2021/04/08 02:18:04;;;;;;;6.00;4.60;;;5.00;76.60;;;4.49;74.76;98767.84;5064514;28;20644;-66
2021/04/08 02:20:34;;;;;;;8.70;4.50;;;5.00;76.40;;;4.51;74.75;98774.66;5068506;28;20644;-66
2021/04/08 02:23:05;;;;;;;5.07;4.47;;;5.00;76.10;;;4.54;75.27;98764.22;5060904;28;20636;-66
2021/04/08 02:25:36;;;;;;;6.57;4.10;;;5.00;76.00;;;4.60;74.95;98776.91;5065640;28;20640;-66
2021/04/08 02:28:06;;;;;;;7.00;4.80;;;5.10;76.00;;;4.58;74.98;98776.09;5064324;28;20636;-66
2021/04/08 02:30:46;;;;;;;8.30;4.53;;;5.00;76.20;;;4.61;76.09;98782.91;5066310;28;20631;-66
2021/04/08 02:33:22;;;;;;;5.00;4.50;;;5.10;76.80;;;4.63;76.92;98775.94;5060937;28;20649;-66
2021/04/08 02:35:51;;;;;;;7.47;4.57;;;5.10;77.00;;;4.63;77.37;98766.50;5061292;28;20718;-66
2021/04/08 02:38:21;;;;;;;5.57;4.30;;;5.10;77.50;;;4.67;76.32;98770.63;5064495;28;20637;-66
2021/04/08 02:40:49;;;;;;;6.90;4.77;;;5.10;77.70;;;4.68;75.52;98771.50;5064455;28;20647;-66
2021/04/08 02:43:17;;;;;;;6.97;4.77;;;5.10;77.30;;;4.69;75.41;98779.16;5066028;28;20688;-66
2021/04/08 02:45:45;;;;;;;6.63;4.87;;;5.20;77.40;;;4.69;76.15;98780.03;5064120;28;20652;-66
2021/04/08 02:48:15;;;;;;;7.57;4.80;;;5.20;77.40;;;4.71;75.43;98787.72;5065846;28;20644;-66
2021/04/08 02:50:50;;;;;;;6.63;5.07;;;5.20;77.40;;;4.74;76.95;98793.63;5070209;28;20628;-66
2021/04/08 02:53:25;;;;;;;6.47;4.53;;;5.20;77.20;;;4.72;76.26;98789.38;5067712;28;20662;-66
2021/04/08 02:55:58;;;;;;;7.47;5.37;;;5.20;78.00;;;4.73;75.77;98786.75;5070827;28;20656;-66
2021/04/08 02:58:30;;;;;;;9.20;5.57;;;5.20;77.30;;;4.72;76.44;98794.56;5066914;28;21186;-66
2021/04/08 03:01:03;;;;;;;7.10;5.27;;;5.20;77.70;;;4.72;77.29;98789.38;5067095;28;20654;-66
2021/04/08 03:03:37;;;;;;;8.40;5.20;;;5.20;77.90;;;4.73;76.40;98802.25;5066607;28;20635;-66
2021/04/08 03:06:09;;;;;;;7.10;5.47;;;5.20;78.10;;;4.75;76.44;98809.94;5069133;28;20651;-66
2021/04/08 03:08:41;;;;;;;8.07;4.80;;;5.20;78.00;;;4.76;76.86;98793.56;5071757;28;20638;-66
2021/04/08 03:11:12;;;;;;;8.10;5.50;;;5.20;77.70;;;4.75;76.06;98795.31;5065767;28;20650;-66
2021/04/08 03:13:43;;;;;;;9.50;5.50;;;5.30;77.70;;;4.74;77.36;98803.13;5067403;28;20666;-66
2021/04/08 03:16:18;;;;;;;6.80;5.60;;;5.20;78.20;;;4.72;77.19;98808.34;5068102;28;21041;-66
2021/04/08 03:18:51;;;;;;;6.80;5.07;;;5.20;78.50;;;4.60;77.14;98807.91;5063733;28;20647;-66
2021/04/08 03:21:24;;;;;;;8.30;5.30;;;5.00;78.70;;;4.56;77.57;98808.91;5066072;28;20643;-66
2021/04/08 03:23:53;;;;;;;6.70;5.67;;;5.00;80.30;;;4.58;78.71;98806.25;5098341;27;20635;-66
2021/04/08 03:26:22;;;;;;;9.10;5.53;;;5.00;80.10;;;4.59;78.48;98813.13;5066939;28;20643;-66
2021/04/08 03:28:51;;;;;;;9.00;5.93;;;5.10;80.50;;;4.60;78.87;98818.25;5064694;28;20636;-66
2021/04/08 03:31:19;;;;;;;7.37;5.30;;;5.10;80.50;;;4.63;78.91;98820.72;5068001;28;21183;-66
2021/04/08 03:33:49;;;;;;;9.87;5.57;;;5.10;80.50;;;4.64;78.01;98812.06;5062000;28;20696;-66
2021/04/08 03:36:17;;;;;;;7.40;5.30;;;5.10;80.40;;;4.65;78.12;98812.91;5067366;28;20664;-66
2021/04/08 03:38:47;;;;;;;7.70;4.83;;;5.10;80.70;;;4.65;78.88;98818.91;5068180;28;20636;-66
2021/04/08 03:41:17;;;;;;;9.32;6.20;;;5.10;80.90;;;4.66;78.61;98810.28;5062067;28;20770;-66
2021/04/08 03:43:46;;;;;;;6.90;5.57;;;5.20;80.90;;;4.68;79.85;98818.81;5068835;28;20197;-66
2021/04/08 03:46:14;;;;;;;8.37;5.83;;;5.10;81.00;;;4.70;79.50;98817.84;5064882;28;20631;-66
2021/04/08 03:48:45;;;;;;;6.73;4.97;;;5.10;81.10;;;4.70;78.85;98807.53;5066597;28;21192;-66
2021/04/08 03:51:13;;;;;;;5.80;4.63;;;5.20;81.20;;;4.71;79.53;98816.97;5066995;28;20998;-66
2021/04/08 03:53:41;;;;;;;12.40;6.90;;;5.20;81.30;;;4.72;78.91;98820.38;5065275;28;20654;-66
2021/04/08 03:56:11;;;;;;;10.70;8.20;;;5.20;82.10;;;4.71;79.42;98822.13;5063349;28;20647;-66
2021/04/08 03:58:40;;;;;;;8.97;6.10;;;5.20;81.30;;;4.71;78.98;98829.88;5063124;28;20632;-66
2021/04/08 04:01:08;;;;;;;8.27;5.73;;;5.20;81.20;;;4.70;79.75;98827.34;5063365;28;20659;-66
2021/04/08 04:03:38;;;;;;;7.93;5.57;;;5.20;81.10;;;4.66;80.06;98825.78;5061737;28;20640;-66
2021/04/08 04:06:09;;;;;;;7.10;5.30;;;5.20;81.00;;;4.65;78.97;98831.00;5064917;28;20657;-66
2021/04/08 04:08:37;;;;;;;9.43;5.90;;;5.20;80.90;;;4.65;78.98;98834.41;5065095;28;20641;-66
2021/04/08 04:11:05;;;;;;;8.73;5.67;;;5.20;81.00;;;4.64;78.73;98834.47;5070563;28;20647;-66
2021/04/08 04:13:34;;;;;;;6.53;5.50;;;5.20;81.60;;;4.63;78.60;98833.63;5069440;28;20663;-66
2021/04/08 04:16:03;;;;;;;7.70;5.90;;;5.20;80.90;;;4.61;78.99;98837.97;5071365;28;20631;-66
2021/04/08 04:18:30;;;;;;;6.77;5.60;;;5.10;81.00;;;4.60;78.42;98849.22;5066601;28;20663;-66
2021/04/08 04:20:58;;;;;;;7.53;5.53;;;5.10;80.70;;;4.61;78.84;98843.16;5060393;28;20632;-66
2021/04/08 04:23:26;;;;;;;7.17;5.40;;;5.10;80.70;;;4.64;79.68;98842.22;5066919;28;20642;-67
2021/04/08 04:25:53;;;;;;;6.43;5.00;;;5.20;81.00;;;4.62;78.83;98851.75;5063590;28;20642;-66
2021/04/08 04:28:21;;;;;;;9.40;6.07;;;5.20;81.90;;;4.59;78.59;98851.88;5061874;28;20725;-66
2021/04/08 04:30:50;;;;;;;6.50;5.50;;;5.10;80.30;;;4.57;78.19;98862.25;5064234;28;20640;-66
2021/04/08 04:33:18;;;;;;;8.17;5.63;;;5.10;80.00;;;4.58;77.97;98857.91;5062500;28;20654;-66
2021/04/08 04:35:46;;;;;;;6.43;5.23;;;5.10;79.80;;;4.58;77.90;98858.75;5062437;28;20691;-66
2021/04/08 04:38:13;;;;;;;8.00;5.57;;;5.10;79.80;;;4.57;78.44;98862.25;5063578;28;20641;-66
2021/04/08 04:40:44;;;;;;;7.70;5.47;;;5.10;79.60;;;4.58;78.29;98863.91;5070764;28;20637;-66
2021/04/08 04:43:12;;;;;;;7.33;5.87;;;5.10;79.30;;;4.57;77.05;98864.81;5062400;28;20672;-66
2021/04/08 04:45:39;;;;;;;6.80;4.93;;;5.10;79.90;;;4.61;76.84;98870.72;5068697;28;20643;-66
2021/04/08 04:48:10;;;;;;;10.03;5.87;;;5.10;78.60;;;4.61;75.75;98868.97;5068137;28;20647;-66
2021/04/08 04:50:38;;;;;;;7.73;6.00;;;5.10;77.90;;;4.61;75.13;98863.81;5061865;28;20675;-67
2021/04/08 04:53:06;;;;;;;8.67;5.33;;;5.10;77.00;;;4.63;75.68;98871.50;5065165;28;20656;-66
2021/04/08 04:55:33;;;;;;;9.97;7.23;;;5.10;76.50;;;4.67;76.76;98878.28;5065305;28;21167;-66
2021/04/08 04:58:07;;;;;;;12.37;8.70;;;5.10;76.90;;;4.68;75.72;98879.97;5067688;28;20653;-66
2021/04/08 05:00:35;;;;;;;7.27;5.40;;;5.20;76.80;;;4.73;75.20;98887.50;5065649;28;20655;-66
2021/04/08 05:03:03;;;;;;;8.93;5.70;;;5.20;77.00;;;4.79;74.69;98889.88;5066069;28;21015;-66
2021/04/08 05:05:31;;;;;;;8.03;5.80;;;5.30;75.60;;;4.82;73.51;98882.03;5062063;28;20640;-66
2021/04/08 05:08:00;;;;;;;9.27;6.00;;;5.30;75.00;;;4.97;73.75;98888.44;5068227;28;20644;-66
2021/04/08 05:10:27;;;;;;;9.07;5.97;;;5.40;74.80;;;5.11;74.28;98892.22;5068045;28;20646;-66
2021/04/08 05:12:55;;;;;;;7.73;5.83;;;5.50;74.60;;;5.27;72.88;98898.56;5067098;28;20655;-65
2021/04/08 05:15:22;;;;;;;7.97;5.60;;;5.60;73.90;;;5.41;73.17;98899.78;5095525;28;21171;-65
2021/04/08 05:18:10;;;;;;;7.40;5.80;;;5.80;74.20;;;5.59;71.85;98909.47;5065884;28;20657;-65
2021/04/08 05:20:39;;;;;;;7.83;5.50;;;5.90;73.20;;;5.75;72.06;98911.47;5066997;28;20639;-65
2021/04/08 05:23:06;;;;;;;10.30;5.70;;;6.10;72.60;;;5.89;70.97;98903.22;5066966;28;20636;-65
2021/04/08 05:25:34;;;;;;;6.47;4.93;;;6.20;71.80;;;6.05;70.61;98907.78;5063829;28;20628;-68
2021/04/08 05:28:02;;;;;;;11.00;5.80;;;6.40;71.80;;;6.17;70.34;98923.69;5064504;28;20743;-68
2021/04/08 05:30:29;;;;;;;6.13;5.40;;;6.50;70.90;;;6.27;70.80;98908.63;5063604;28;20653;-76
2021/04/08 05:32:57;;;;;;;6.90;5.50;;;6.60;70.90;;;6.39;69.99;98910.75;5065264;28;20688;-69
2021/04/08 05:35:25;;;;;;;5.73;5.13;;;6.70;70.30;;;6.41;69.67;98909.81;5062945;28;20672;-70
2021/04/08 05:37:53;;;;;;;7.30;5.40;;;6.80;70.20;;;6.47;70.76;98916.50;5065339;28;20640;-68
2021/04/08 05:40:21;;;;;;;6.30;5.07;;;6.80;70.10;;;6.51;68.98;98912.88;5067448;28;20642;-68
2021/04/08 05:42:49;;;;;;;7.67;5.30;;;6.90;69.20;;;6.56;69.50;98916.97;5065563;28;20636;-68
2021/04/08 05:45:18;;;;;;;6.30;4.97;;;6.90;68.70;;;6.58;68.41;98917.75;5067777;28;21087;-68
2021/04/08 05:47:47;;;;;;;9.50;5.10;;;7.00;68.00;;;6.56;67.63;98922.16;5065510;28;20682;-68
2021/04/08 05:50:16;;;;;;;8.73;5.20;;;6.90;66.60;;;6.54;66.94;98923.97;5066729;28;20657;-69
2021/04/08 05:52:44;;;;;;;8.60;4.90;;;7.00;65.90;;;6.59;66.75;98924.63;5064896;28;20669;-69
2021/04/08 05:55:13;;;;;;;6.13;5.40;;;7.00;65.30;;;6.62;66.83;98924.50;5062914;28;20996;-69
2021/04/08 05:57:41;;;;;;;6.13;5.13;;;7.10;65.30;;;6.64;66.62;98925.28;5063927;28;21202;-69
2021/04/08 06:00:12;;;;;;;6.40;5.13;;;7.10;65.20;;;6.66;67.52;98921.75;5068265;28;20687;-69
2021/04/08 06:02:40;;;;;;;7.90;4.97;;;7.10;65.40;;;6.85;66.59;98921.84;5072288;28;20636;-68
2021/04/08 06:05:09;;;;;;;5.60;4.90;;;7.20;65.30;;;7.21;64.60;98929.78;5062791;28;20638;-68
2021/04/08 06:07:37;;;;;;;8.33;5.20;;;7.50;64.50;;;7.56;64.28;98934.31;5062256;28;20641;-69
2021/04/08 06:10:06;;;;;;;7.03;4.93;;;7.80;63.70;;;7.78;64.61;98935.94;5063660;28;20635;-68
2021/04/08 06:12:35;;;;;;;6.67;4.60;;;8.00;62.50;;;7.93;64.19;98937.84;5060616;28;20797;-68
2021/04/08 06:15:03;;;;;;;6.50;4.70;;;8.10;61.80;;;7.88;63.19;98945.03;5069158;28;20639;-68
2021/04/08 06:17:31;;;;;;;8.37;5.30;;;8.20;60.40;;;7.89;61.98;98935.47;5068753;28;20652;-68
2021/04/08 06:19:59;;;;;;;6.00;4.90;;;8.20;60.00;;;8.03;62.54;98924.41;5066680;28;21025;-68
2021/04/08 06:22:26;;;;;;;7.43;4.67;;;8.30;59.50;;;8.30;61.34;98941.38;5061507;28;20645;-68
2021/04/08 06:24:54;;;;;;;7.70;5.60;;;8.50;59.00;;;8.40;60.65;98944.38;5063775;28;20638;-68
2021/04/08 06:27:22;;;;;;;8.53;5.60;;;8.60;58.70;;;8.55;61.34;98936.72;5067701;28;20668;-68
2021/04/08 06:29:51;;;;;;;9.07;4.70;;;8.70;59.30;;;8.57;59.31;98937.50;5063410;28;20639;-68
2021/04/08 06:32:35;;;;;;;6.43;5.27;;;8.80;57.70;;;8.72;58.54;98947.16;5066054;28;20694;-68
2021/04/08 06:35:05;;;;;;;5.17;4.67;;;8.90;56.80;;;8.81;58.22;98941.50;5063173;28;20651;-69
2021/04/08 06:37:32;;;;;;;5.80;4.40;;;9.00;56.50;;;8.99;58.06;98946.66;5061549;28;20631;-68
2021/04/08 06:40:04;;;;;;;6.83;4.70;;;9.20;56.00;;;9.19;57.50;98956.97;5060133;28;21147;-68
2021/04/08 06:42:35;;;;;;;6.17;4.60;;;9.30;56.10;;;9.23;58.67;98946.34;5063995;28;21204;-68
2021/04/08 06:45:08;;;;;;;6.73;5.50;;;9.50;55.90;;;9.43;58.49;98954.00;5066886;28;20727;-68
2021/04/08 06:47:51;;;;;;;7.20;5.20;;;9.60;56.20;;;9.64;57.79;98956.34;5063985;28;20629;-68
2021/04/08 06:50:25;;;;;;;6.73;5.30;;;9.70;55.50;;;9.57;56.41;98951.53;5062436;28;20626;-68
2021/04/08 06:52:53;;;;;;;8.90;5.80;;;9.80;53.60;;;9.44;56.75;98951.31;5062000;28;20650;-68
2021/04/08 06:55:21;;;;;;;6.93;5.07;;;9.70;53.60;;;9.36;56.24;98956.97;5066221;28;20624;-68
2021/04/08 06:57:49;;;;;;;7.77;5.30;;;9.70;54.00;;;9.39;56.36;98955.06;5060998;28;20638;-68
2021/04/08 07:00:19;;;;;;;10.00;5.57;;;9.70;53.70;;;9.47;56.72;98961.56;5063544;28;21017;-68
2021/04/08 07:02:48;;;;;;;6.80;4.97;;;9.80;54.20;;;9.70;57.33;98956.03;5088662;28;21054;-69
2021/04/08 07:05:16;;;;;;;9.43;5.73;;;9.90;54.90;;;9.98;59.40;98967.63;5066141;28;20627;-69
2021/04/08 07:07:44;;;;;;;7.93;5.40;;;10.10;55.40;;;10.13;57.19;98969.41;5064760;28;20624;-69
2021/04/08 07:10:12;;;;;;;7.13;6.40;;;10.20;53.80;;;10.37;57.78;98957.66;5059875;28;20696;-68
2021/04/08 07:12:40;;;;;;;11.27;7.33;;;10.50;54.10;;;10.41;56.76;98959.19;5063258;28;20642;-68
2021/04/08 07:15:09;;;;;;;11.23;8.23;;;10.50;53.20;;;10.66;56.63;98969.97;5079058;28;20965;-68
2021/04/08 07:17:42;;;;;;;9.10;7.07;;;10.70;53.30;;;10.90;55.85;98969.47;5063888;28;20628;-68
2021/04/08 07:20:10;;;;;;;9.80;6.87;;;10.90;52.50;;;11.09;56.13;98970.94;5066792;28;20627;-68
2021/04/08 07:22:43;;;;;;;7.03;5.53;;;11.10;51.70;;;11.08;53.76;98971.91;5059223;28;20648;-68
2021/04/08 07:25:19;;;;;;;8.60;6.80;;;11.20;51.10;;;11.26;55.26;98976.09;5067192;28;20647;-68
2021/04/08 07:27:47;;;;;;;6.97;5.47;;;11.30;51.30;;;11.03;54.00;98970.47;5063546;28;20721;-68
2021/04/08 07:30:19;;;;;;;7.50;5.97;;;11.00;49.10;;;10.62;54.36;98968.47;5063991;28;21242;-68
2021/04/08 07:32:59;;;;;;;8.47;6.30;;;10.80;49.50;;;10.44;55.59;98972.06;5064265;28;20643;-68
2021/04/08 07:35:40;;;;;;;7.90;5.50;;;10.50;51.30;;;10.68;55.39;98965.53;5070329;28;20643;-68
2021/04/08 07:38:08;;;;;;;7.70;5.73;;;10.70;51.20;;;10.48;55.63;98977.03;5068833;28;20655;-68
2021/04/08 07:40:37;;;;;;;8.40;5.30;;;10.40;51.40;;;10.72;55.83;98980.06;5068625;28;21096;-68
2021/04/08 07:43:14;;;;;;;5.97;5.10;;;10.70;52.40;;;11.17;53.43;98983.56;5067516;28;20654;-68
2021/04/08 07:45:42;;;;;;;7.93;5.97;;;11.10;50.10;;;11.38;55.10;98984.06;5065785;28;20650;-68
2021/04/08 07:48:11;;;;;;;7.67;5.10;;;11.30;50.30;;;11.61;53.44;98988.00;5058351;28;20647;-68
2021/04/08 07:50:40;;;;;;;7.43;5.10;;;11.60;50.60;;;11.56;51.46;98990.88;5069415;28;21177;-68
2021/04/08 07:53:18;;;;;;;6.73;5.10;;;11.50;48.40;;;11.58;51.43;98991.63;5070530;28;20814;-68
2021/04/08 07:55:46;;;;;;;7.93;5.50;;;11.60;47.40;;;11.59;51.46;98993.31;5064004;28;20648;-68
2021/04/08 07:58:16;;;;;;;5.33;4.80;;;11.50;47.30;;;11.80;52.39;99003.34;5068723;28;21212;-68
2021/04/08 08:00:45;;;;;;;12.30;5.93;;;11.80;48.60;;;11.92;49.30;98997.41;5071514;28;21177;-68
2021/04/08 08:03:31;;;;;;;6.90;5.00;;;12.00;45.70;;;11.97;49.80;98997.97;5067089;28;20686;-68
2021/04/08 08:06:03;;;;;;;7.70;5.60;;;12.00;46.70;;;11.72;50.73;98999.50;5068875;28;20631;-68
2021/04/08 08:08:37;;;;;;;7.90;5.10;;;11.70;45.50;;;11.84;50.22;99002.22;5071519;28;20636;-68
2021/04/08 08:11:09;;;;;;;6.30;5.00;;;11.90;46.00;;;11.93;52.35;99008.69;5069335;28;20669;-68
2021/04/08 08:13:49;;;;;;;4.80;4.20;;;12.00;46.60;;;12.11;50.85;99008.44;5068752;28;20649;-68
2021/04/08 08:16:19;;;;;;;6.60;5.10;;;12.10;45.70;;;12.11;49.00;99013.66;5066524;28;20681;-68
2021/04/08 08:18:49;;;;;;;6.27;5.07;;;12.20;45.80;;;12.23;49.07;99015.53;5066002;28;21036;-69
2021/04/08 08:21:23;;;;;;;6.53;5.20;;;12.30;44.50;;;12.43;49.92;99015.19;5069386;28;20643;-68
2021/04/08 08:23:54;;;;;;;5.43;4.93;;;12.40;45.30;;;12.45;49.46;99015.94;5067774;28;20627;-68
2021/04/08 08:26:32;;;;;;;4.40;3.73;;;12.40;44.90;;;12.48;48.85;99016.59;5069584;28;20673;-69
2021/04/08 08:29:03;;;;;;;5.07;4.13;;;12.40;43.60;;;12.48;48.29;99013.09;5067923;28;20641;-69
2021/04/08 08:31:43;;;;;;;7.53;4.40;;;12.50;44.50;;;12.40;48.59;99012.75;5069584;28;20627;-68
2021/04/08 08:34:17;;;;;;;8.43;5.20;;;12.40;43.30;;;12.50;49.66;99013.88;5067991;28;20993;-68
2021/04/08 08:36:48;;;;;;;5.40;4.80;;;12.50;44.70;;;12.61;49.39;99019.28;5070832;28;20623;-68
2021/04/08 08:39:18;;;;;;;6.10;4.80;;;12.60;44.30;;;12.68;46.26;99022.25;5069162;28;20651;-68
2021/04/08 08:41:48;;;;;;;7.20;4.10;;;12.70;42.40;;;12.46;46.68;99023.69;5071528;28;20654;-68
2021/04/08 08:44:20;;;;;;;6.70;4.20;;;12.70;41.30;;;12.14;47.31;99017.88;5068082;28;20667;-68
2021/04/08 08:46:52;;;;;;;6.33;4.30;;;12.40;40.30;;;12.03;47.70;99015.06;5065599;28;20632;-68
2021/04/08 08:49:24;;;;;;;5.57;5.00;;;12.20;43.10;;;11.92;49.35;99020.94;5069535;28;21174;-68
2021/04/08 08:51:58;;;;;;;7.70;5.53;;;12.00;43.90;;;12.23;49.93;99029.44;5070106;28;20639;-68
2021/04/08 08:54:28;;;;;;;5.40;4.80;;;12.20;42.50;;;12.14;48.16;99029.16;5066442;28;20652;-69
2021/04/08 08:56:58;;;;;;;7.30;4.70;;;12.20;42.80;;;11.82;48.37;99032.84;5071992;28;20632;-69
2021/04/08 08:59:27;;;;;;;5.30;4.13;;;12.00;42.00;;;11.50;49.38;99024.31;5072939;28;20986;-68
2021/04/08 09:01:56;;;;;;;8.53;4.17;;;11.80;41.90;;;11.37;47.88;99026.75;5077398;28;20659;-68
2021/04/08 09:04:44;;;;;;;5.50;4.47;;;11.60;42.30;;;11.14;46.87;99025.53;5068535;28;20652;-68
2021/04/08 09:07:14;;;;;;;6.03;3.93;;;11.30;41.00;;;11.08;48.06;99029.34;5067445;28;20706;-68
2021/04/08 09:09:46;;;;;;;7.57;4.53;;;11.30;41.30;;;11.15;46.74;99029.81;5070303;28;20649;-68
2021/04/08 09:12:35;;;;;;;6.00;4.77;;;11.30;41.40;;;11.71;48.21;99021.31;5080463;28;20689;-68
2021/04/08 09:15:07;;;;;;;4.93;4.50;;;11.70;43.20;;;11.70;47.48;99017.03;5068911;28;20643;-68
2021/04/08 09:17:46;;;;;;;5.63;4.70;;;11.70;42.90;;;11.59;47.99;99014.22;5066330;28;20726;-68
2021/04/08 09:20:17;;;;;;;6.23;5.00;;;11.70;43.30;;;11.37;47.81;99028.53;5068626;28;20650;-68
2021/04/08 09:22:54;;;;;;;5.00;4.10;;;11.50;41.40;;;11.05;47.63;99023.41;5063799;28;20646;-68
2021/04/08 09:25:27;;;;;;;6.87;5.20;;;11.30;41.00;;;10.96;49.72;99026.53;5066133;28;20639;-68
2021/04/08 09:27:58;;;;;;;8.57;5.90;;;11.20;42.40;;;10.96;47.50;99022.19;5068234;28;20957;-68
2021/04/08 09:30:43;;;;;;;8.60;5.80;;;11.10;42.10;;;10.96;49.37;99023.94;5066358;28;21190;-68
2021/04/08 09:33:12;;;;;;;9.10;5.93;;;11.10;42.30;;;11.11;50.20;99021.34;5063907;28;20651;-68
2021/04/08 09:35:43;;;;;;;6.20;5.60;;;11.20;43.40;;;10.86;46.91;99028.81;5062826;28;20680;-68
2021/04/08 09:38:17;;;;;;;7.03;5.40;;;11.10;40.80;;;10.85;49.11;99024.53;5064398;28;20684;-68
2021/04/08 09:41:02;;;;;;;6.27;5.60;;;11.00;43.00;;;10.84;48.11;99017.63;5064971;28;20731;-68
2021/04/08 09:43:32;;;;;;;8.70;6.27;;;11.00;41.90;;;10.84;49.02;99009.78;5065472;28;20643;-68
2021/04/08 09:46:07;;;;;;;8.17;5.90;;;11.00;42.80;;;10.77;50.15;99012.00;5096524;28;20723;-68
2021/04/08 09:48:53;;;;;;;7.87;6.13;;;10.90;43.60;;;10.53;49.96;99002.88;5068742;28;20654;-68
2021/04/08 09:51:44;;;;;;;6.70;5.53;;;10.70;43.90;;;10.39;50.76;99008.00;5066445;28;21245;-68
2021/04/08 09:54:13;;;;;;;12.70;6.30;;;10.50;44.10;;;10.30;50.76;99002.38;5063170;28;20647;-68
2021/04/08 09:56:49;;;;;;;10.87;5.20;;;10.40;44.50;;;10.15;49.85;99009.28;5067194;28;20765;-68
2021/04/08 09:59:18;;;;;;;6.20;5.50;;;10.30;43.50;;;10.21;50.52;99002.88;5069108;28;21468;-68
2021/04/08 10:01:47;;;;;;;9.13;5.97;;;10.40;44.60;;;10.24;49.98;98998.38;5064171;28;20719;-68
2021/04/08 10:04:22;;;;;;;6.17;5.50;;;10.40;44.20;;;10.34;50.38;98995.19;5063837;28;20641;-68
2021/04/08 10:07:02;;;;;;;8.90;5.80;;;10.50;44.60;;;10.36;48.52;98995.13;5068373;28;20639;-69
2021/04/08 10:09:30;;;;;;;8.77;6.03;;;10.50;43.10;;;10.32;49.94;98995.34;5065935;28;20620;-68
2021/04/08 10:12:01;;;;;;;9.33;5.67;;;10.50;43.30;;;10.32;51.07;99009.22;5066807;28;20675;-68
2021/04/08 10:14:31;;;;;;;8.20;6.10;;;10.50;44.40;;;10.28;49.52;99005.09;5061310;28;20663;-68
2021/04/08 10:17:08;;;;;;;6.63;5.73;;;10.50;43.40;;;10.29;50.49;99011.16;5064894;28;20631;-68
2021/04/08 10:19:39;;;;;;;11.23;6.97;;;10.50;44.20;;;10.28;51.32;99015.50;5064086;28;21018;-69
2021/04/08 10:22:13;;;;;;;11.80;6.40;;;10.50;44.90;;;10.32;50.47;99011.81;5063548;28;21020;-68
2021/04/08 10:24:43;;;;;;;7.47;5.70;;;10.50;44.60;;;10.28;50.16;99001.63;5069164;28;20638;-68
2021/04/08 10:27:14;;;;;;;6.50;5.80;;;10.50;44.30;;;10.30;50.20;98997.19;5066712;28;20737;-68
2021/04/08 10:29:42;;;;;;;7.30;6.33;;;10.50;44.80;;;10.52;51.31;99007.22;5069445;28;21235;-68
2021/04/08 10:32:10;;;;;;;6.40;5.80;;;10.60;45.20;;;10.81;50.79;99002.13;5063994;28;20643;-68
2021/04/08 10:34:42;;;;;;;7.87;6.13;;;10.90;45.80;;;10.89;49.70;99002.56;5064852;28;20683;-68
2021/04/08 10:37:11;;;;;;;8.60;5.80;;;10.90;44.40;;;10.91;50.55;98995.47;5062010;28;20739;-68
2021/04/08 10:39:40;;;;;;;7.10;5.53;;;11.00;44.40;;;10.93;49.97;99001.47;5060203;28;20674;-68
2021/04/08 10:42:10;;;;;;;7.63;5.93;;;11.00;44.40;;;11.04;49.49;98999.09;5059725;28;20643;-68
2021/04/08 10:44:43;;;;;;;6.83;5.70;;;11.20;43.90;;;11.14;48.69;99002.03;5061604;28;20995;-68